MiSS Donna — WDG2382 — position and weather

sailwx.info

Track history (hours):
 
Tides and Currents Weather Stations Pressure Air Temp Water Temp Dewpoint Dewpoint Depression Visibility Wind Speed Wind Dir Waves Ship Positions

MiSS Donna

Owner: OCEAN MARINE BOAT RENTALS,LLC, MORGAN CITY, LA. More information available from US FCC via Universal Licensing System and Coast Guard Vessel Documentation Center.

Last reported at 2014-Dec-22 11:17 UTC. Time now 2014-Dec-22 12:07 UTC.
Position N 39°13' W 076°35'.

Length 21 m; draft 2.7 m.

Type: Towing. MMSI: 367515090.

Date/timePositionNaut miles runAvg speedWind from/ knotsBaromVisibWave heightAir tempDewpointWater temp
2014-Dec-22 11:17N 39°13' W 076°35'0 0.0
2014-Dec-22 10:29N 39°13' W 076°35'0 0.0
2014-Dec-22 09:32N 39°13' W 076°35'0 0.0
2014-Dec-22 08:29N 39°13' W 076°35'0 0.0
2014-Dec-22 07:29N 39°13' W 076°35'0 0.0
2014-Dec-22 06:32N 39°13' W 076°35'0 0.0
2014-Dec-22 05:32N 39°13' W 076°35'0 0.0
2014-Dec-22 04:23N 39°13' W 076°35'0 0.0
2014-Dec-22 03:29N 39°13' W 076°35'0 0.0
2014-Dec-22 02:23N 39°13' W 076°35'0 0.0
2014-Dec-22 01:29N 39°13' W 076°35'0 0.0
2014-Dec-22 00:29N 39°13' W 076°35'0 0.0
2014-Dec-21 23:23N 39°13' W 076°35'0 0.0
2014-Dec-21 22:29N 39°13' W 076°35'0 0.0
2014-Dec-21 21:32N 39°13' W 076°35'0 0.0
2014-Dec-21 20:26N 39°13' W 076°35'0 0.0
2014-Dec-21 18:26N 39°13' W 076°35'0 0.0
2014-Dec-21 17:32N 39°13' W 076°35'0 0.0
2014-Dec-21 16:29N 39°13' W 076°35'0 0.0
2014-Dec-21 15:32N 39°13' W 076°35'0 0.0
2014-Dec-21 14:32N 39°13' W 076°35'0 0.0
2014-Dec-21 13:32N 39°13' W 076°35'0 0.0
2014-Dec-21 12:32N 39°13' W 076°35'0 0.0
2014-Dec-21 11:32N 39°13' W 076°35'0 0.0
2014-Dec-21 10:32N 39°13' W 076°35'0 0.0
2014-Dec-21 09:29N 39°13' W 076°35'0 0.0
2014-Dec-21 08:32N 39°13' W 076°35'0 0.0
2014-Dec-21 07:32N 39°13' W 076°35'0 0.0
2014-Dec-21 06:32N 39°13' W 076°35'0 0.0
2014-Dec-21 05:32N 39°13' W 076°35'0 0.0
2014-Dec-21 04:32N 39°13' W 076°35'0 0.0
2014-Dec-21 03:29N 39°13' W 076°35'0 0.0
2014-Dec-21 02:32N 39°13' W 076°35'0 0.0
2014-Dec-21 01:32N 39°13' W 076°35'0 0.0
2014-Dec-21 00:29N 39°13' W 076°35'0 0.0
2014-Dec-20 23:32N 39°13' W 076°35'0 0.0
2014-Dec-20 22:32N 39°13' W 076°35'0 0.0
2014-Dec-20 21:32N 39°13' W 076°35'0 0.0
2014-Dec-20 20:32N 39°13' W 076°35'0 0.0
2014-Dec-20 19:26N 39°13' W 076°35'0 0.0
2014-Dec-20 18:29N 39°13' W 076°35'0 0.0
2014-Dec-20 17:32N 39°13' W 076°35'0 0.0
2014-Dec-20 16:26N 39°13' W 076°35'0 0.0
2014-Dec-20 15:32N 39°13' W 076°35'0 0.0
2014-Dec-20 14:33N 39°13' W 076°35'0 0.0
2014-Dec-20 13:33N 39°13' W 076°35'0 0.0
2014-Dec-20 12:30N 39°13' W 076°35'0 0.0
2014-Dec-20 11:30N 39°13' W 076°35'0 0.0
2014-Dec-20 10:33N 39°13' W 076°35'0 0.0
2014-Dec-20 09:33N 39°13' W 076°35'0 0.0
2014-Dec-20 08:30N 39°13' W 076°35'0 0.0
2014-Dec-20 07:33N 39°13' W 076°35'0 0.0
2014-Dec-20 06:33N 39°13' W 076°35'3 2.6
2014-Dec-20 05:33N 39°15' W 076°36'4 3.6
2014-Dec-20 04:34N 39°13' W 076°32'6 5.6
2014-Dec-20 03:33N 39°11' W 076°25'5 4.9
2014-Dec-20 02:33N 39°08' W 076°20'2 0.3
2014-Dec-19 19:26N 39°09' W 076°22'6 7.2
2014-Dec-19 18:34N 39°12' W 076°29'5 4.0
2014-Dec-19 17:25N 39°13' W 076°35'0 0.0
2014-Dec-19 16:22N 39°13' W 076°35'0 0.0
2014-Dec-19 15:31N 39°13' W 076°35'0 0.0
2014-Dec-19 14:31N 39°13' W 076°35'0 0.0
2014-Dec-19 13:18N 39°13' W 076°35'0 0.0
2014-Dec-19 12:31N 39°13' W 076°35'0 0.0
2014-Dec-19 10:12N 39°13' W 076°35'0 0.0
2014-Dec-19 05:13N 39°13' W 076°35'0 0.0
2014-Dec-19 03:30N 39°13' W 076°35'0 0.0
2014-Dec-19 02:13N 39°13' W 076°35'0 0.0
2014-Dec-19 01:30N 39°13' W 076°35'0 0.0
2014-Dec-19 00:24N 39°13' W 076°35'0 0.0
2014-Dec-18 23:24N 39°13' W 076°35'0 0.0
2014-Dec-18 22:30N 39°13' W 076°35'0 0.0
2014-Dec-18 21:12N 39°13' W 076°35'0 0.0
2014-Dec-18 20:21N 39°13' W 076°35'0 0.0
2014-Dec-18 19:33N 39°13' W 076°35'0 0.0
2014-Dec-18 18:12N 39°13' W 076°35'0 0.0
2014-Dec-18 17:12N 39°13' W 076°35'0 0.0
2014-Dec-18 16:06N 39°13' W 076°35'0 0.0
2014-Dec-18 15:18N 39°13' W 076°35'0 0.0
2014-Dec-18 14:18N 39°13' W 076°35'0 0.0
2014-Dec-18 13:24N 39°13' W 076°35'0 0.0
2014-Dec-18 12:30N 39°13' W 076°35'0 0.0
2014-Dec-18 11:24N 39°13' W 076°35'0 0.0
2014-Dec-18 09:06N 39°13' W 076°35'0 0.0
2014-Dec-18 08:21N 39°13' W 076°35'0 0.0
2014-Dec-18 06:33N 39°13' W 076°35'0 0.0
2014-Dec-18 05:33N 39°13' W 076°35'0 0.0
2014-Dec-18 04:12N 39°13' W 076°35'0 0.0
2014-Dec-18 01:33N 39°13' W 076°35'3 2.6
2014-Dec-18 00:34N 39°15' W 076°36'4 4.2
2014-Dec-17 23:33N 39°13' W 076°31'5 4.9
2014-Dec-17 22:33N 39°11' W 076°25'5 5.0
2014-Dec-17 21:33N 39°08' W 076°20'2 0.3
2014-Dec-17 14:31N 39°09' W 076°22'7 6.9
2014-Dec-17 13:33N 39°12' W 076°30'4 3.5
2014-Dec-17 12:26N 39°13' W 076°35'0 0.0
2014-Dec-17 11:23N 39°13' W 076°35'0 0.0
2014-Dec-17 10:23N 39°13' W 076°35'0 0.0
2014-Dec-17 09:32N 39°13' W 076°35'0 0.0
2014-Dec-17 08:23N 39°13' W 076°35'0 0.0
2014-Dec-17 07:26N 39°13' W 076°35'0 0.0
2014-Dec-17 06:08N 39°13' W 076°35'0 0.0
2014-Dec-17 05:32N 39°13' W 076°35'0 0.0
2014-Dec-17 04:08N 39°13' W 076°35'0 0.0
2014-Dec-16 14:11N 39°13' W 076°35'3 4.5
2014-Dec-16 13:33N 39°15' W 076°33'3 2.6
2014-Dec-16 12:29N 39°13' W 076°35'0 0.0
2014-Dec-16 08:33N 39°13' W 076°35'0 0.0
2014-Dec-16 07:33N 39°13' W 076°35'0 0.0
2014-Dec-16 06:33N 39°13' W 076°35'0 0.0
2014-Dec-16 05:33N 39°13' W 076°35'0 0.0
2014-Dec-16 04:18N 39°13' W 076°35'0 0.0
2014-Dec-16 01:09N 39°13' W 076°35'0 0.0
2014-Dec-15 23:33N 39°13' W 076°35'0 0.0
2014-Dec-15 22:09N 39°13' W 076°35'0 0.0
2014-Dec-15 21:19N 39°13' W 076°35'4 5.5
2014-Dec-15 20:34N 39°12' W 076°30'9 7.1
2014-Dec-15 19:16N 39°04' W 076°24'6 7.7
2014-Dec-15 18:27N 38°58' W 076°24'8 0.4
2014-Dec-14 22:33N 38°50' W 076°27'7 7.2
2014-Dec-14 21:33N 38°57' W 076°25'8 6.9
2014-Dec-14 20:28N 39°05' W 076°24'6 6.5
2014-Dec-14 19:33N 39°10' W 076°26'6 6.3
2014-Dec-14 18:33N 39°13' W 076°33'2 1.5
2014-Dec-14 17:25N 39°13' W 076°35'0 0.0
2014-Dec-14 16:25N 39°13' W 076°35'0 0.0
2014-Dec-14 15:31N 39°13' W 076°35'0 0.0
2014-Dec-14 14:25N 39°13' W 076°35'0 0.0
2014-Dec-14 13:31N 39°13' W 076°35'0 0.0
2014-Dec-14 12:25N 39°13' W 076°35'0 0.0
2014-Dec-14 10:31N 39°13' W 076°35'0 0.0
2014-Dec-14 08:31N 39°13' W 076°35'0 0.0
2014-Dec-14 07:31N 39°13' W 076°35'0 0.0
2014-Dec-14 06:25N 39°13' W 076°35'0 0.0
2014-Dec-14 05:25N 39°13' W 076°35'0 0.0
2014-Dec-14 04:31N 39°13' W 076°35'0 0.0
2014-Dec-14 03:31N 39°13' W 076°35'0 0.0
2014-Dec-14 02:31N 39°13' W 076°35'0 0.0
2014-Dec-14 01:31N 39°13' W 076°35'0 0.0
2014-Dec-14 00:31N 39°13' W 076°35'0 0.0
2014-Dec-13 23:31N 39°13' W 076°35'0 0.0
2014-Dec-13 22:25N 39°13' W 076°35'0 0.0
2014-Dec-13 21:31N 39°13' W 076°35'0 0.0
2014-Dec-13 20:31N 39°13' W 076°35'0 0.0
2014-Dec-13 19:31N 39°13' W 076°35'0 0.0
2014-Dec-13 18:25N 39°13' W 076°35'0 0.0
2014-Dec-13 17:25N 39°13' W 076°35'0 0.0
2014-Dec-13 16:31N 39°13' W 076°35'0 0.0
2014-Dec-13 15:16N 39°13' W 076°35'0 0.0
2014-Dec-13 14:31N 39°13' W 076°35'0 0.0
2014-Dec-13 13:10N 39°13' W 076°35'0 0.0
2014-Dec-13 12:25N 39°13' W 076°35'0 0.0
2014-Dec-13 11:31N 39°13' W 076°35'0 0.0
2014-Dec-13 10:31N 39°13' W 076°35'0 0.0
2014-Dec-13 09:31N 39°13' W 076°35'0 0.0
2014-Dec-13 08:19N 39°13' W 076°35'0 0.0
2014-Dec-13 07:31N 39°13' W 076°35'0 0.0
2014-Dec-13 06:31N 39°13' W 076°35'0 0.0
2014-Dec-13 05:31N 39°13' W 076°35'0 0.0
2014-Dec-13 04:31N 39°13' W 076°35'0 0.0
2014-Dec-12 23:13N 39°13' W 076°35'0 0.0
2014-Dec-12 22:31N 39°13' W 076°35'0 0.0
2014-Dec-12 21:31N 39°13' W 076°35'0 0.0
2014-Dec-12 20:25N 39°13' W 076°35'0 0.0
2014-Dec-12 19:28N 39°13' W 076°35'0 0.0
2014-Dec-12 18:30N 39°13' W 076°35'1 0.7
2014-Dec-12 17:33N 39°13' W 076°35'0 0.2
2014-Dec-12 16:31N 39°13' W 076°35'0 0.1
2014-Dec-12 15:33N 39°13' W 076°35'0 0.0
2014-Dec-12 14:33N 39°13' W 076°35'0 0.0
2014-Dec-12 13:34N 39°13' W 076°35'0 0.1
2014-Dec-12 12:30N 39°13' W 076°35'2 2.0
2014-Dec-12 11:34N 39°15' W 076°36'  
Track history (hours):
 
Tides and Currents Weather Stations Pressure Air Temp Water Temp Dewpoint Dewpoint Depression Visibility Wind Speed Wind Dir Waves Ship Positions

MiSS Donna

Owner: OCEAN MARINE BOAT RENTALS,LLC, MORGAN CITY, LA. More information available from US FCC via Universal Licensing System and Coast Guard Vessel Documentation Center.

Last reported at 2014-Dec-22 11:17 UTC. Time now 2014-Dec-22 12:07 UTC.
Position N 39°13' W 076°35'.

Length 21 m; draft 2.7 m.

Type: Towing. MMSI: 367515090.

Date/timePositionNaut miles runAvg speedWind from/ knotsBaromVisibWave heightAir tempDewpointWater temp
2014-Dec-22 11:17N 39°13' W 076°35'0 0.0
2014-Dec-22 10:29N 39°13' W 076°35'0 0.0
2014-Dec-22 09:32N 39°13' W 076°35'0 0.0
2014-Dec-22 08:29N 39°13' W 076°35'0 0.0
2014-Dec-22 07:29N 39°13' W 076°35'0 0.0
2014-Dec-22 06:32N 39°13' W 076°35'0 0.0
2014-Dec-22 05:32N 39°13' W 076°35'0 0.0
2014-Dec-22 04:23N 39°13' W 076°35'0 0.0
2014-Dec-22 03:29N 39°13' W 076°35'0 0.0
2014-Dec-22 02:23N 39°13' W 076°35'0 0.0
2014-Dec-22 01:29N 39°13' W 076°35'0 0.0
2014-Dec-22 00:29N 39°13' W 076°35'0 0.0
2014-Dec-21 23:23N 39°13' W 076°35'0 0.0
2014-Dec-21 22:29N 39°13' W 076°35'0 0.0
2014-Dec-21 21:32N 39°13' W 076°35'0 0.0
2014-Dec-21 20:26N 39°13' W 076°35'0 0.0
2014-Dec-21 18:26N 39°13' W 076°35'0 0.0
2014-Dec-21 17:32N 39°13' W 076°35'0 0.0
2014-Dec-21 16:29N 39°13' W 076°35'0 0.0
2014-Dec-21 15:32N 39°13' W 076°35'0 0.0
2014-Dec-21 14:32N 39°13' W 076°35'0 0.0
2014-Dec-21 13:32N 39°13' W 076°35'0 0.0
2014-Dec-21 12:32N 39°13' W 076°35'0 0.0
2014-Dec-21 11:32N 39°13' W 076°35'0 0.0
2014-Dec-21 10:32N 39°13' W 076°35'0 0.0
2014-Dec-21 09:29N 39°13' W 076°35'0 0.0
2014-Dec-21 08:32N 39°13' W 076°35'0 0.0
2014-Dec-21 07:32N 39°13' W 076°35'0 0.0
2014-Dec-21 06:32N 39°13' W 076°35'0 0.0
2014-Dec-21 05:32N 39°13' W 076°35'0 0.0
2014-Dec-21 04:32N 39°13' W 076°35'0 0.0
2014-Dec-21 03:29N 39°13' W 076°35'0 0.0
2014-Dec-21 02:32N 39°13' W 076°35'0 0.0
2014-Dec-21 01:32N 39°13' W 076°35'0 0.0
2014-Dec-21 00:29N 39°13' W 076°35'0 0.0
2014-Dec-20 23:32N 39°13' W 076°35'0 0.0
2014-Dec-20 22:32N 39°13' W 076°35'0 0.0
2014-Dec-20 21:32N 39°13' W 076°35'0 0.0
2014-Dec-20 20:32N 39°13' W 076°35'0 0.0
2014-Dec-20 19:26N 39°13' W 076°35'0 0.0
2014-Dec-20 18:29N 39°13' W 076°35'0 0.0
2014-Dec-20 17:32N 39°13' W 076°35'0 0.0
2014-Dec-20 16:26N 39°13' W 076°35'0 0.0
2014-Dec-20 15:32N 39°13' W 076°35'0 0.0
2014-Dec-20 14:33N 39°13' W 076°35'0 0.0
2014-Dec-20 13:33N 39°13' W 076°35'0 0.0
2014-Dec-20 12:30N 39°13' W 076°35'0 0.0
2014-Dec-20 11:30N 39°13' W 076°35'0 0.0
2014-Dec-20 10:33N 39°13' W 076°35'0 0.0
2014-Dec-20 09:33N 39°13' W 076°35'0 0.0
2014-Dec-20 08:30N 39°13' W 076°35'0 0.0
2014-Dec-20 07:33N 39°13' W 076°35'0 0.0
2014-Dec-20 06:33N 39°13' W 076°35'3 2.6
2014-Dec-20 05:33N 39°15' W 076°36'4 3.6
2014-Dec-20 04:34N 39°13' W 076°32'6 5.6
2014-Dec-20 03:33N 39°11' W 076°25'5 4.9
2014-Dec-20 02:33N 39°08' W 076°20'2 0.3
2014-Dec-19 19:26N 39°09' W 076°22'6 7.2
2014-Dec-19 18:34N 39°12' W 076°29'5 4.0
2014-Dec-19 17:25N 39°13' W 076°35'0 0.0
2014-Dec-19 16:22N 39°13' W 076°35'0 0.0
2014-Dec-19 15:31N 39°13' W 076°35'0 0.0
2014-Dec-19 14:31N 39°13' W 076°35'0 0.0
2014-Dec-19 13:18N 39°13' W 076°35'0 0.0
2014-Dec-19 12:31N 39°13' W 076°35'0 0.0
2014-Dec-19 10:12N 39°13' W 076°35'0 0.0
2014-Dec-19 05:13N 39°13' W 076°35'0 0.0
2014-Dec-19 03:30N 39°13' W 076°35'0 0.0
2014-Dec-19 02:13N 39°13' W 076°35'0 0.0
2014-Dec-19 01:30N 39°13' W 076°35'0 0.0
2014-Dec-19 00:24N 39°13' W 076°35'0 0.0
2014-Dec-18 23:24N 39°13' W 076°35'0 0.0
2014-Dec-18 22:30N 39°13' W 076°35'0 0.0
2014-Dec-18 21:12N 39°13' W 076°35'0 0.0
2014-Dec-18 20:21N 39°13' W 076°35'0 0.0
2014-Dec-18 19:33N 39°13' W 076°35'0 0.0
2014-Dec-18 18:12N 39°13' W 076°35'0 0.0
2014-Dec-18 17:12N 39°13' W 076°35'0 0.0
2014-Dec-18 16:06N 39°13' W 076°35'0 0.0
2014-Dec-18 15:18N 39°13' W 076°35'0 0.0
2014-Dec-18 14:18N 39°13' W 076°35'0 0.0
2014-Dec-18 13:24N 39°13' W 076°35'0 0.0
2014-Dec-18 12:30N 39°13' W 076°35'0 0.0
2014-Dec-18 11:24N 39°13' W 076°35'0 0.0
2014-Dec-18 09:06N 39°13' W 076°35'0 0.0
2014-Dec-18 08:21N 39°13' W 076°35'0 0.0
2014-Dec-18 06:33N 39°13' W 076°35'0 0.0
2014-Dec-18 05:33N 39°13' W 076°35'0 0.0
2014-Dec-18 04:12N 39°13' W 076°35'0 0.0
2014-Dec-18 01:33N 39°13' W 076°35'3 2.6
2014-Dec-18 00:34N 39°15' W 076°36'4 4.2
2014-Dec-17 23:33N 39°13' W 076°31'5 4.9
2014-Dec-17 22:33N 39°11' W 076°25'5 5.0
2014-Dec-17 21:33N 39°08' W 076°20'2 0.3
2014-Dec-17 14:31N 39°09' W 076°22'7 6.9
2014-Dec-17 13:33N 39°12' W 076°30'4 3.5
2014-Dec-17 12:26N 39°13' W 076°35'0 0.0
2014-Dec-17 11:23N 39°13' W 076°35'0 0.0
2014-Dec-17 10:23N 39°13' W 076°35'0 0.0
2014-Dec-17 09:32N 39°13' W 076°35'0 0.0
2014-Dec-17 08:23N 39°13' W 076°35'0 0.0
2014-Dec-17 07:26N 39°13' W 076°35'0 0.0
2014-Dec-17 06:08N 39°13' W 076°35'0 0.0
2014-Dec-17 05:32N 39°13' W 076°35'0 0.0
2014-Dec-17 04:08N 39°13' W 076°35'0 0.0
2014-Dec-16 14:11N 39°13' W 076°35'3 4.5
2014-Dec-16 13:33N 39°15' W 076°33'3 2.6
2014-Dec-16 12:29N 39°13' W 076°35'0 0.0
2014-Dec-16 08:33N 39°13' W 076°35'0 0.0
2014-Dec-16 07:33N 39°13' W 076°35'0 0.0
2014-Dec-16 06:33N 39°13' W 076°35'0 0.0
2014-Dec-16 05:33N 39°13' W 076°35'0 0.0
2014-Dec-16 04:18N 39°13' W 076°35'0 0.0
2014-Dec-16 01:09N 39°13' W 076°35'0 0.0
2014-Dec-15 23:33N 39°13' W 076°35'0 0.0
2014-Dec-15 22:09N 39°13' W 076°35'0 0.0
2014-Dec-15 21:19N 39°13' W 076°35'4 5.5
2014-Dec-15 20:34N 39°12' W 076°30'9 7.1
2014-Dec-15 19:16N 39°04' W 076°24'6 7.7
2014-Dec-15 18:27N 38°58' W 076°24'8 0.4
2014-Dec-14 22:33N 38°50' W 076°27'7 7.2
2014-Dec-14 21:33N 38°57' W 076°25'8 6.9
2014-Dec-14 20:28N 39°05' W 076°24'6 6.5
2014-Dec-14 19:33N 39°10' W 076°26'6 6.3
2014-Dec-14 18:33N 39°13' W 076°33'2 1.5
2014-Dec-14 17:25N 39°13' W 076°35'0 0.0
2014-Dec-14 16:25N 39°13' W 076°35'0 0.0
2014-Dec-14 15:31N 39°13' W 076°35'0 0.0
2014-Dec-14 14:25N 39°13' W 076°35'0 0.0
2014-Dec-14 13:31N 39°13' W 076°35'0 0.0
2014-Dec-14 12:25N 39°13' W 076°35'0 0.0
2014-Dec-14 10:31N 39°13' W 076°35'0 0.0
2014-Dec-14 08:31N 39°13' W 076°35'0 0.0
2014-Dec-14 07:31N 39°13' W 076°35'0 0.0
2014-Dec-14 06:25N 39°13' W 076°35'0 0.0
2014-Dec-14 05:25N 39°13' W 076°35'0 0.0
2014-Dec-14 04:31N 39°13' W 076°35'0 0.0
2014-Dec-14 03:31N 39°13' W 076°35'0 0.0
2014-Dec-14 02:31N 39°13' W 076°35'0 0.0
2014-Dec-14 01:31N 39°13' W 076°35'0 0.0
2014-Dec-14 00:31N 39°13' W 076°35'0 0.0
2014-Dec-13 23:31N 39°13' W 076°35'0 0.0
2014-Dec-13 22:25N 39°13' W 076°35'0 0.0
2014-Dec-13 21:31N 39°13' W 076°35'0 0.0
2014-Dec-13 20:31N 39°13' W 076°35'0 0.0
2014-Dec-13 19:31N 39°13' W 076°35'0 0.0
2014-Dec-13 18:25N 39°13' W 076°35'0 0.0
2014-Dec-13 17:25N 39°13' W 076°35'0 0.0
2014-Dec-13 16:31N 39°13' W 076°35'0 0.0
2014-Dec-13 15:16N 39°13' W 076°35'0 0.0
2014-Dec-13 14:31N 39°13' W 076°35'0 0.0
2014-Dec-13 13:10N 39°13' W 076°35'0 0.0
2014-Dec-13 12:25N 39°13' W 076°35'0 0.0
2014-Dec-13 11:31N 39°13' W 076°35'0 0.0
2014-Dec-13 10:31N 39°13' W 076°35'0 0.0
2014-Dec-13 09:31N 39°13' W 076°35'0 0.0
2014-Dec-13 08:19N 39°13' W 076°35'0 0.0
2014-Dec-13 07:31N 39°13' W 076°35'0 0.0
2014-Dec-13 06:31N 39°13' W 076°35'0 0.0
2014-Dec-13 05:31N 39°13' W 076°35'0 0.0
2014-Dec-13 04:31N 39°13' W 076°35'0 0.0
2014-Dec-12 23:13N 39°13' W 076°35'0 0.0
2014-Dec-12 22:31N 39°13' W 076°35'0 0.0
2014-Dec-12 21:31N 39°13' W 076°35'0 0.0
2014-Dec-12 20:25N 39°13' W 076°35'0 0.0
2014-Dec-12 19:28N 39°13' W 076°35'0 0.0
2014-Dec-12 18:30N 39°13' W 076°35'1 0.7
2014-Dec-12 17:33N 39°13' W 076°35'0 0.2
2014-Dec-12 16:31N 39°13' W 076°35'0 0.1
2014-Dec-12 15:33N 39°13' W 076°35'0 0.0
2014-Dec-12 14:33N 39°13' W 076°35'0 0.0
2014-Dec-12 13:34N 39°13' W 076°35'0 0.1
2014-Dec-12 12:30N 39°13' W 076°35'2 2.0
2014-Dec-12 11:34N 39°15' W 076°36'  

Dump ship's entire track history